Time;durP1;ratioP1;P1;durP2;ratioP2;P2;SDS_P1;SDS_P2;PMS_P1;PMS_P2;Temp;Humidity;BMP_temperature;BMP_pressure;BME280_temperature;BME280_humidity;BME280_pressure;Samples;Min_cycle;Max_cycle;Signal;HPM_P1;HPM_P2
2021/10/19 05:07:10;;;;;;;7.13;6.22;;;17.40;71.50;;;;;;5477640;24;20118;-71
2021/10/19 05:09:42;;;;;;;8.45;7.00;;;17.40;71.50;;;;;;4808054;29;20505;-68
2021/10/19 05:12:08;;;;;;;9.27;7.65;;;17.40;71.70;;;;;;4801229;29;20051;-73
2021/10/19 05:14:34;;;;;;;9.90;8.23;;;17.30;71.70;;;;;;4792890;30;20363;-70
2021/10/19 05:17:00;;;;;;;10.23;8.88;;;17.30;71.80;;;;;;4803223;29;20093;-70
2021/10/19 05:19:26;;;;;;;12.30;9.18;;;17.40;72.70;;;;;;4795118;29;20123;-70
2021/10/19 05:21:51;;;;;;;10.85;8.57;;;17.40;72.30;;;;;;4776729;30;20062;-70
2021/10/19 05:24:17;;;;;;;11.00;8.43;;;17.40;72.40;;;;;;4776902;30;20142;-70
2021/10/19 05:26:43;;;;;;;12.82;10.27;;;17.40;73.10;;;;;;4793317;30;20076;-70
2021/10/19 05:29:09;;;;;;;12.82;10.38;;;17.40;73.60;;;;;;4777345;30;20491;-71
2021/10/19 05:31:34;;;;;;;16.20;11.25;;;17.30;75.40;;;;;;4798871;29;20066;-70
2021/10/19 05:34:00;;;;;;;12.63;8.48;;;17.20;76.80;;;;;;4794363;29;20053;-73
2021/10/19 05:36:26;;;;;;;11.32;8.40;;;17.30;75.90;;;;;;4794615;29;20050;-71
2021/10/19 05:38:52;;;;;;;13.32;7.97;;;17.50;75.40;;;;;;4809575;29;20117;-73
2021/10/19 05:41:18;;;;;;;9.70;7.68;;;17.70;74.80;;;;;;4809977;29;20055;-72
2021/10/19 05:43:45;;;;;;;12.73;7.80;;;17.80;74.40;;;;;;4810479;29;20094;-71
2021/10/19 05:46:12;;;;;;;14.43;7.10;;;17.90;74.20;;;;;;4810434;29;20131;-71
2021/10/19 05:48:38;;;;;;;11.35;7.40;;;18.00;74.20;;;;;;4810453;29;20134;-71
2021/10/19 05:51:05;;;;;;;10.63;7.35;;;18.10;74.20;;;;;;4808675;29;20462;-71
2021/10/19 05:53:30;;;;;;;10.98;6.78;;;18.20;74.20;;;;;;4809088;29;20063;-71
2021/10/19 05:55:56;;;;;;;10.85;6.63;;;18.20;74.20;;;;;;4793509;29;20379;-70
2021/10/19 05:58:23;;;;;;;7.97;6.15;;;18.20;74.20;;;;;;4809801;29;20142;-71
2021/10/19 06:00:50;;;;;;;9.18;6.97;;;18.20;74.20;;;;;;4810133;29;20050;-71
2021/10/19 06:03:16;;;;;;;8.75;6.45;;;18.20;74.20;;;;;;4794594;29;20467;-71
2021/10/19 06:05:41;;;;;;;7.97;6.35;;;18.20;74.30;;;;;;4791997;30;20124;-71
2021/10/19 06:08:07;;;;;;;9.70;6.60;;;18.20;74.30;;;;;;4791878;30;20067;-72
2021/10/19 06:10:33;;;;;;;9.05;6.72;;;18.20;74.40;;;;;;4790628;30;20471;-71
2021/10/19 06:12:59;;;;;;;10.88;6.82;;;18.20;74.50;;;;;;4791970;30;20055;-71
2021/10/19 06:15:25;;;;;;;11.77;7.38;;;18.20;74.60;;;;;;4792351;30;20067;-70
2021/10/19 06:17:52;;;;;;;9.45;6.70;;;18.20;74.60;;;;;;4802628;29;20054;-70
2021/10/19 06:20:17;;;;;;;10.43;7.25;;;18.10;74.80;;;;;;4791644;30;20486;-72
2021/10/19 06:22:43;;;;;;;9.05;5.85;;;18.10;74.90;;;;;;4797500;29;20051;-68
2021/10/19 06:25:09;;;;;;;9.50;6.95;;;18.10;75.20;;;;;;4808982;29;20046;-69
2021/10/19 06:27:35;;;;;;;10.70;6.38;;;18.10;75.60;;;;;;4807170;29;20406;-71
2021/10/19 06:30:03;;;;;;;15.23;7.03;;;18.00;76.20;;;;;;4796724;29;20087;-74
2021/10/19 06:32:28;;;;;;;10.27;6.78;;;18.00;76.10;;;;;;4790608;30;20058;-71
2021/10/19 06:34:54;;;;;;;13.13;6.90;;;18.00;76.10;;;;;;4797693;29;20059;-73
2021/10/19 06:37:20;;;;;;;9.30;6.50;;;18.00;76.00;;;;;;4809852;29;20054;-71
2021/10/19 06:39:45;;;;;;;13.65;6.68;;;18.00;76.10;;;;;;4793434;29;20134;-71
2021/10/19 06:42:12;;;;;;;18.08;6.93;;;18.00;76.30;;;;;;4808290;29;20055;-71
2021/10/19 06:44:37;;;;;;;11.32;6.15;;;18.00;76.10;;;;;;4807941;29;20062;-71
2021/10/19 06:47:03;;;;;;;11.02;6.40;;;18.00;76.00;;;;;;4795038;29;20062;-75
2021/10/19 06:49:29;;;;;;;14.52;6.45;;;18.00;76.30;;;;;;4791255;29;20055;-70
2021/10/19 06:51:55;;;;;;;12.50;7.57;;;18.00;77.10;;;;;;4808366;29;20137;-74
2021/10/19 06:54:20;;;;;;;16.05;7.88;;;18.10;77.80;;;;;;4792896;29;20051;-71
2021/10/19 06:56:46;;;;;;;16.17;7.13;;;18.10;78.00;;;;;;4808768;29;20047;-68
2021/10/19 06:59:12;;;;;;;13.73;7.38;;;18.10;78.20;;;;;;4809041;29;20046;-71
2021/10/19 07:01:37;;;;;;;10.15;6.25;;;18.10;77.30;;;;;;4808361;29;20089;-69
2021/10/19 07:04:03;;;;;;;8.90;6.78;;;18.10;76.90;;;;;;4807550;29;20059;-74
2021/10/19 07:06:30;;;;;;;11.13;6.22;;;18.10;76.80;;;;;;4808875;29;20050;-75
2021/10/19 07:08:56;;;;;;;11.75;6.80;;;18.10;76.80;;;;;;4807374;29;20133;-77
2021/10/19 07:11:26;;;;;;;10.13;7.28;;;18.10;76.70;;;;;;4802895;29;20162;-79
2021/10/19 07:13:55;;;;;;;8.40;6.82;;;18.10;76.70;;;;;;4789834;30;20070;-78
2021/10/19 07:16:21;;;;;;;10.20;6.60;;;18.10;76.60;;;;;;4790840;29;20138;-75
2021/10/19 07:18:47;;;;;;;10.57;6.60;;;18.10;76.50;;;;;;4790623;30;20511;-74
2021/10/19 07:21:13;;;;;;;12.70;6.93;;;18.00;76.60;;;;;;4790124;30;20126;-75
2021/10/19 07:23:38;;;;;;;17.73;7.13;;;18.00;76.60;;;;;;4789580;30;20047;-77
2021/10/19 07:26:04;;;;;;;16.02;7.15;;;18.00;76.70;;;;;;4791026;30;20452;-70
2021/10/19 07:28:30;;;;;;;13.57;7.15;;;18.00;76.70;;;;;;4790487;29;20055;-74
2021/10/19 07:30:55;;;;;;;24.65;8.27;;;18.00;76.70;;;;;;4791371;29;20091;-73
2021/10/19 07:33:21;;;;;;;17.88;8.15;;;18.00;76.80;;;;;;4793938;29;20051;-75
2021/10/19 07:35:47;;;;;;;17.77;8.00;;;18.00;76.80;;;;;;4809079;29;20058;-69
2021/10/19 07:38:13;;;;;;;14.82;7.30;;;18.00;76.70;;;;;;4808941;29;20510;-69
2021/10/19 07:40:39;;;;;;;9.48;6.57;;;18.00;76.50;;;;;;4808223;29;20042;-70
2021/10/19 07:43:04;;;;;;;17.13;6.80;;;18.00;76.40;;;;;;4807961;29;20047;-69
2021/10/19 07:45:30;;;;;;;11.57;6.40;;;17.90;76.40;;;;;;4808526;29;20437;-70
2021/10/19 07:48:02;;;;;;;8.55;6.18;;;17.90;76.40;;;;;;4808394;29;20062;-70
2021/10/19 07:50:30;;;;;;;11.05;6.18;;;17.90;76.30;;;;;;4808156;29;20061;-70
2021/10/19 07:52:57;;;;;;;13.48;6.03;;;17.90;76.30;;;;;;4807318;29;20074;-69
2021/10/19 07:55:24;;;;;;;10.63;5.95;;;17.90;76.20;;;;;;4807270;29;20055;-70
2021/10/19 07:57:51;;;;;;;7.10;5.78;;;17.90;76.20;;;;;;4807999;29;20097;-70
2021/10/19 08:00:21;;;;;;;11.15;5.55;;;17.80;76.10;;;;;;4808260;29;20062;-69
2021/10/19 08:02:47;;;;;;;8.48;5.35;;;17.90;76.10;;;;;;4799384;29;20051;-69
2021/10/19 08:05:14;;;;;;;8.85;5.00;;;17.80;76.00;;;;;;4790427;30;20051;-70
2021/10/19 08:07:42;;;;;;;7.80;5.55;;;17.80;75.90;;;;;;4789852;30;20057;-69
2021/10/19 08:10:09;;;;;;;8.52;5.00;;;17.80;75.90;;;;;;4790245;30;20067;-70
2021/10/19 08:12:35;;;;;;;7.90;5.07;;;17.80;75.90;;;;;;4774351;30;20147;-70
2021/10/19 08:15:01;;;;;;;8.02;5.20;;;17.80;75.80;;;;;;4789974;30;20051;-70
2021/10/19 08:17:28;;;;;;;9.32;4.70;;;17.80;75.80;;;;;;4789727;30;20066;-69
2021/10/19 08:19:59;;;;;;;8.80;4.97;;;17.80;75.70;;;;;;4789390;30;20051;-70
2021/10/19 08:22:26;;;;;;;4.95;4.20;;;17.80;75.70;;;;;;4793403;29;20139;-70
2021/10/19 08:24:51;;;;;;;6.85;4.15;;;17.80;75.70;;;;;;4808067;29;20047;-70
2021/10/19 08:27:17;;;;;;;7.07;5.20;;;17.80;75.60;;;;;;4808215;29;20051;-69
2021/10/19 08:29:43;;;;;;;6.57;4.57;;;17.80;76.20;;;;;;4808176;29;20047;-69
2021/10/19 08:32:08;;;;;;;6.43;4.22;;;17.80;75.60;;;;;;4807939;29;20355;-70
2021/10/19 08:34:34;;;;;;;7.03;4.50;;;17.80;75.60;;;;;;4807978;29;20058;-70
2021/10/19 08:37:00;;;;;;;7.30;4.18;;;17.80;75.60;;;;;;4807853;29;20366;-70
2021/10/19 08:39:25;;;;;;;8.82;4.55;;;17.80;75.60;;;;;;4807596;29;20063;-70
2021/10/19 08:41:52;;;;;;;5.07;3.80;;;17.80;75.50;;;;;;4791931;29;20055;-70
2021/10/19 08:44:17;;;;;;;7.03;4.25;;;17.80;75.50;;;;;;4807671;29;20090;-69
2021/10/19 08:46:43;;;;;;;5.07;3.65;;;17.80;75.50;;;;;;4807617;29;20089;-69
2021/10/19 08:49:09;;;;;;;7.15;3.85;;;17.80;75.50;;;;;;4790326;29;20108;-70
2021/10/19 08:51:36;;;;;;;3.90;3.50;;;17.80;75.40;;;;;;4789725;30;20143;-69
2021/10/19 08:54:07;;;;;;;4.93;3.97;;;17.80;75.40;;;;;;4789753;30;20059;-70
2021/10/19 08:56:37;;;;;;;6.78;4.20;;;17.80;75.30;;;;;;4773929;30;20130;-70
2021/10/19 08:59:03;;;;;;;4.47;3.60;;;17.90;75.30;;;;;;4789788;30;20102;-70
2021/10/19 09:01:36;;;;;;;4.35;3.65;;;17.90;75.20;;;;;;4790042;30;20051;-70
2021/10/19 09:04:10;;;;;;;4.47;3.97;;;17.90;75.20;;;;;;4774615;30;20051;-70
2021/10/19 09:06:37;;;;;;;5.07;3.35;;;17.90;75.10;;;;;;4774257;30;20452;-69
2021/10/19 09:09:05;;;;;;;4.80;3.92;;;17.90;75.10;;;;;;4789668;30;20372;-70
2021/10/19 09:11:42;;;;;;;4.88;3.33;;;17.90;75.10;;;;;;4789403;30;20130;-69
2021/10/19 09:14:10;;;;;;;5.55;3.90;;;17.90;75.10;;;;;;4804899;29;20415;-70
2021/10/19 09:16:44;;;;;;;4.07;3.65;;;17.90;75.00;;;;;;4807851;29;20066;-69
2021/10/19 09:19:14;;;;;;;4.88;3.30;;;17.90;75.00;;;;;;4807564;29;20058;-70
2021/10/19 09:21:53;;;;;;;5.38;3.38;;;17.90;75.00;;;;;;4807510;29;20051;-70
2021/10/19 09:24:26;;;;;;;4.20;3.20;;;17.90;75.00;;;;;;4807351;29;20130;-69
2021/10/19 09:27:06;;;;;;;6.53;3.65;;;17.90;75.00;;;;;;4807460;29;20117;-70
2021/10/19 09:29:40;;;;;;;3.67;3.10;;;17.90;74.90;;;;;;4808175;29;20055;-70
2021/10/19 09:32:08;;;;;;;4.40;3.60;;;17.90;74.90;;;;;;4810118;29;20134;-70
2021/10/19 09:34:36;;;;;;;3.65;2.83;;;17.90;74.90;;;;;;4810387;29;20434;-69
2021/10/19 09:37:07;;;;;;;3.42;2.78;;;17.90;74.90;;;;;;4810712;29;20047;-70
2021/10/19 09:39:37;;;;;;;6.28;3.60;;;17.80;74.80;;;;;;4810511;29;20143;-70
2021/10/19 09:42:08;;;;;;;4.57;2.88;;;17.90;74.90;;;;;;4808877;29;20051;-70
2021/10/19 09:44:35;;;;;;;4.40;3.05;;;17.90;74.90;;;;;;4793050;30;20055;-69
2021/10/19 09:47:02;;;;;;;4.63;3.42;;;17.80;74.80;;;;;;4792267;30;20125;-70
2021/10/19 09:49:29;;;;;;;3.13;2.85;;;17.80;74.80;;;;;;4792161;30;20051;-69
2021/10/19 09:52:00;;;;;;;3.13;2.70;;;17.90;74.90;;;;;;4792231;30;20148;-70
2021/10/19 09:54:29;;;;;;;3.75;2.85;;;17.80;74.80;;;;;;4792499;30;20059;-69
2021/10/19 09:56:58;;;;;;;3.67;2.75;;;17.90;74.90;;;;;;4792362;30;20124;-69
2021/10/19 09:59:24;;;;;;;3.25;2.70;;;17.80;74.80;;;;;;4791882;30;20055;-69
2021/10/19 10:01:50;;;;;;;3.20;2.75;;;17.90;74.90;;;;;;4795022;29;20443;-69
2021/10/19 10:04:17;;;;;;;3.55;2.70;;;17.80;74.80;;;;;;4810126;29;20055;-70
2021/10/19 10:06:44;;;;;;;4.13;3.05;;;17.80;74.80;;;;;;4810428;29;20098;-70
2021/10/19 10:09:10;;;;;;;3.30;2.97;;;17.80;74.70;;;;;;4810153;29;20063;-70
2021/10/19 10:11:40;;;;;;;3.60;2.80;;;17.90;74.80;;;;;;4810075;29;20107;-69
2021/10/19 10:14:07;;;;;;;5.03;3.17;;;17.80;74.80;;;;;;4810135;29;20054;-69
2021/10/19 10:16:47;;;;;;;3.42;2.90;;;17.90;74.80;;;;;;4810346;29;20054;-69
2021/10/19 10:19:15;;;;;;;3.53;2.83;;;17.90;74.70;;;;;;4809895;29;20077;-69
2021/10/19 10:21:48;;;;;;;2.88;2.65;;;17.90;74.80;;;;;;4809835;29;20137;-69
2021/10/19 10:24:14;;;;;;;3.45;2.70;;;17.80;74.70;;;;;;4809960;29;20115;-70
2021/10/19 10:26:40;;;;;;;3.08;2.78;;;17.90;74.80;;;;;;4809891;29;20046;-69
2021/10/19 10:29:10;;;;;;;2.70;2.50;;;17.80;74.70;;;;;;4810310;29;20054;-69
2021/10/19 10:31:50;;;;;;;4.32;2.70;;;17.80;74.70;;;;;;4807552;29;20047;-69
2021/10/19 10:34:27;;;;;;;2.75;2.55;;;17.80;74.70;;;;;;4791878;30;20077;-69
2021/10/19 10:36:54;;;;;;;4.10;2.58;;;17.80;74.70;;;;;;4791631;30;20055;-69
2021/10/19 10:39:20;;;;;;;3.13;2.78;;;17.80;74.70;;;;;;4791658;30;20130;-70
2021/10/19 10:41:48;;;;;;;3.53;2.60;;;17.80;74.70;;;;;;4791095;29;20138;-70
2021/10/19 10:44:22;;;;;;;2.60;2.40;;;17.80;74.70;;;;;;4790845;30;20055;-69
2021/10/19 10:46:48;;;;;;;;;;;17.80;74.70;;;;;;4791700;30;20101;-69
2021/10/19 10:49:14;;;;;;;2.95;2.60;;;17.80;74.60;;;;;;4791291;30;20021;-70
2021/10/19 10:51:42;;;;;;;3.17;2.55;;;17.80;74.80;;;;;;4791416;30;20097;-70
2021/10/19 10:54:16;;;;;;;2.22;2.00;;;17.80;74.80;;;;;;4791234;30;20059;-70
2021/10/19 10:56:47;;;;;;;2.47;2.25;;;17.80;74.80;;;;;;4791681;30;20063;-69
2021/10/19 10:59:32;;;;;;;2.80;2.20;;;17.80;74.80;;;;;;4791065;30;20051;-70
2021/10/19 11:02:08;;;;;;;2.55;2.33;;;17.80;74.70;;;;;;4778981;29;20051;-69
2021/10/19 11:04:44;;;;;;;2.70;2.50;;;17.80;74.80;;;;;;4809467;29;20046;-69
2021/10/19 11:07:10;;;;;;;2.33;2.13;;;17.80;74.80;;;;;;4808875;29;20050;-70
2021/10/19 11:09:36;;;;;;;2.53;2.30;;;17.80;74.80;;;;;;4808456;29;20067;-69
2021/10/19 11:12:03;;;;;;;2.55;2.35;;;17.80;74.80;;;;;;4808934;29;20090;-70
2021/10/19 11:14:29;;;;;;;3.03;2.35;;;17.80;74.80;;;;;;4809506;29;20061;-69
2021/10/19 11:16:56;;;;;;;2.72;2.38;;;17.80;74.80;;;;;;4809075;29;20119;-69
2021/10/19 11:19:23;;;;;;;2.22;2.03;;;17.80;74.80;;;;;;4808769;29;20060;-69
2021/10/19 11:22:10;;;;;;;2.28;2.05;;;17.80;74.80;;;;;;4809090;29;20084;-70
2021/10/19 11:24:36;;;;;;;2.55;2.35;;;17.80;74.70;;;;;;4808479;29;20050;-70
2021/10/19 11:27:04;;;;;;;2.33;2.00;;;17.80;74.80;;;;;;4808796;29;20115;-69
2021/10/19 11:29:37;;;;;;;2.72;2.38;;;17.80;74.80;;;;;;4808497;29;20519;-69
2021/10/19 11:32:04;;;;;;;2.42;1.90;;;17.80;74.90;;;;;;4804340;29;20047;-69
2021/10/19 11:34:30;;;;;;;2.10;1.90;;;17.80;74.80;;;;;;4791118;30;20055;-69
2021/10/19 11:36:55;;;;;;;2.15;1.90;;;17.80;74.80;;;;;;4790723;30;20066;-69
2021/10/19 11:39:21;;;;;;;2.20;2.00;;;17.80;74.80;;;;;;4791124;30;20467;-69
2021/10/19 11:41:49;;;;;;;2.33;1.95;;;17.80;74.80;;;;;;4790531;30;20062;-69
2021/10/19 11:44:15;;;;;;;1.85;1.70;;;17.80;74.70;;;;;;4790023;30;20479;-70
2021/10/19 11:46:41;;;;;;;1.98;1.80;;;17.80;74.80;;;;;;4790557;30;20088;-69
2021/10/19 11:49:15;;;;;;;1.70;1.55;;;17.80;74.70;;;;;;4790189;30;20058;-69
2021/10/19 11:51:50;;;;;;;1.95;1.73;;;17.80;74.70;;;;;;4790436;30;20047;-69
2021/10/19 11:54:17;;;;;;;1.90;1.70;;;17.80;74.70;;;;;;4790015;30;20062;-70
2021/10/19 11:56:57;;;;;;;2.05;1.85;;;17.80;74.80;;;;;;4790165;30;20051;-70
2021/10/19 11:59:22;;;;;;;1.63;1.50;;;17.80;74.80;;;;;;4790046;30;20064;-69
2021/10/19 12:01:52;;;;;;;2.88;1.58;;;17.80;74.80;;;;;;4790729;29;20063;-69
2021/10/19 12:04:26;;;;;;;2.05;1.80;;;17.80;74.70;;;;;;4790117;30;20063;-69
2021/10/19 12:06:53;;;;;;;2.10;1.77;;;17.80;74.80;;;;;;4790743;30;20104;-69
2021/10/19 12:09:25;;;;;;;1.60;1.45;;;17.80;74.80;;;;;;4798459;29;20057;-69
2021/10/19 12:12:00;;;;;;;3.97;1.50;;;17.80;74.80;;;;;;4823668;29;20058;-71
2021/10/19 12:14:30;;;;;;;3.95;2.38;;;17.80;75.40;;;;;;4808075;29;20067;-70
2021/10/19 12:17:00;;;;;;;4.10;1.83;;;17.80;76.30;;;;;;4807940;29;20089;-72
2021/10/19 12:19:27;;;;;;;4.63;1.80;;;17.80;76.70;;;;;;4808080;29;20115;-69
2021/10/19 12:21:58;;;;;;;3.05;1.30;;;17.80;76.60;;;;;;4807623;29;20086;-72
2021/10/19 12:24:25;;;;;;;2.05;1.13;;;17.80;76.80;;;;;;4807628;29;20468;-72
2021/10/19 12:27:14;;;;;;;4.03;1.10;;;17.90;76.80;;;;;;4791188;29;20387;-72
2021/10/19 12:29:40;;;;;;;2.25;1.05;;;18.00;76.70;;;;;;4791453;29;20062;-70
2021/10/19 12:32:06;;;;;;;6.85;1.52;;;18.10;77.00;;;;;;4801884;29;20047;-72
2021/10/19 12:34:33;;;;;;;6.60;1.63;;;18.20;76.50;;;;;;4773862;30;20494;-69
2021/10/19 12:37:02;;;;;;;7.72;1.45;;;18.20;76.60;;;;;;4789346;30;20167;-70
2021/10/19 12:39:29;;;;;;;7.47;1.80;;;18.30;76.50;;;;;;4793350;29;20047;-72
2021/10/19 12:41:56;;;;;;;2.63;1.50;;;18.30;76.50;;;;;;4805339;29;20078;-73
2021/10/19 12:44:22;;;;;;;7.00;1.27;;;18.30;75.20;;;;;;4807695;29;20108;-70
2021/10/19 12:46:49;;;;;;;5.18;1.10;;;18.30;75.80;;;;;;4807453;29;20125;-71
2021/10/19 12:49:16;;;;;;;5.50;1.10;;;18.30;76.20;;;;;;4807083;29;20050;-75
2021/10/19 12:51:42;;;;;;;7.88;1.30;;;18.30;76.40;;;;;;4789526;29;20082;-69
2021/10/19 12:54:08;;;;;;;2.53;1.00;;;18.30;76.40;;;;;;4791546;29;20055;-69
2021/10/19 12:56:37;;;;;;;2.63;1.10;;;18.30;76.40;;;;;;4807439;29;20051;-72
2021/10/19 12:59:04;;;;;;;3.10;1.20;;;18.30;76.40;;;;;;4807074;29;20460;-72
2021/10/19 13:01:30;;;;;;;3.45;1.33;;;18.30;76.40;;;;;;4780727;29;20481;-69
2021/10/19 13:03:56;;;;;;;11.73;1.60;;;18.30;76.40;;;;;;4807655;29;20133;-70
2021/10/19 13:06:23;;;;;;;4.57;1.23;;;18.30;76.50;;;;;;4809317;29;20470;-70
2021/10/19 13:08:51;;;;;;;3.95;1.10;;;18.30;76.60;;;;;;4810691;29;20058;-70
2021/10/19 13:11:17;;;;;;;5.53;1.17;;;18.40;76.60;;;;;;4803200;29;20055;-70
2021/10/19 13:13:43;;;;;;;4.80;1.50;;;18.40;76.70;;;;;;4800955;29;20479;-70
2021/10/19 13:16:09;;;;;;;4.30;1.30;;;18.40;76.60;;;;;;4809742;29;20082;-71
2021/10/19 13:18:38;;;;;;;5.00;1.00;;;18.40;76.70;;;;;;4809715;29;20086;-70
2021/10/19 13:21:05;;;;;;;4.65;2.00;;;18.40;76.70;;;;;;4810128;29;20054;-71
2021/10/19 13:23:31;;;;;;;6.78;1.40;;;18.40;76.80;;;;;;4810033;29;20047;-74
2021/10/19 13:25:57;;;;;;;3.15;1.02;;;18.40;76.90;;;;;;4810336;29;20058;-73
2021/10/19 13:28:23;;;;;;;4.45;1.20;;;18.40;76.90;;;;;;4809586;29;20059;-73
2021/10/19 13:30:50;;;;;;;3.33;0.93;;;18.50;76.90;;;;;;4810287;29;20039;-70
2021/10/19 13:33:17;;;;;;;6.88;1.42;;;18.60;76.80;;;;;;4810960;29;20119;-73
2021/10/19 13:35:43;;;;;;;3.40;0.77;;;18.70;76.60;;;;;;4779563;29;20371;-70
2021/10/19 13:38:10;;;;;;;3.70;1.17;;;18.80;76.40;;;;;;4810143;29;20064;-71
2021/10/19 13:40:36;;;;;;;3.15;1.48;;;18.90;76.30;;;;;;4810265;29;20138;-74
2021/10/19 13:43:02;;;;;;;7.22;1.90;;;19.00;76.20;;;;;;4810956;29;20126;-72
2021/10/19 13:45:29;;;;;;;5.90;1.30;;;19.00;76.50;;;;;;4810356;29;20054;-71
2021/10/19 13:47:55;;;;;;;7.07;1.70;;;19.10;76.60;;;;;;4810249;29;20055;-77
2021/10/19 13:50:21;;;;;;;9.27;2.20;;;19.10;76.70;;;;;;4802733;29;20520;-74
2021/10/19 13:52:47;;;;;;;9.57;2.20;;;19.10;76.90;;;;;;4792198;29;20059;-73
2021/10/19 13:55:15;;;;;;;9.98;2.63;;;19.10;77.00;;;;;;4791421;30;20069;-75
2021/10/19 13:57:42;;;;;;;8.20;3.53;;;19.10;77.10;;;;;;4807086;29;20069;-73
2021/10/19 14:00:10;;;;;;;7.18;2.72;;;19.10;77.50;;;;;;4810769;29;20051;-72
2021/10/19 14:02:36;;;;;;;7.32;3.75;;;19.10;77.50;;;;;;4809104;29;20053;-70
2021/10/19 14:05:03;;;;;;;14.55;5.25;;;19.10;77.70;;;;;;4794016;29;20047;-72
2021/10/19 14:07:29;;;;;;;11.20;4.97;;;19.10;78.70;;;;;;4809677;29;20059;-70
2021/10/19 14:09:55;;;;;;;18.17;5.72;;;19.00;79.20;;;;;;4809655;29;20098;-69
2021/10/19 14:12:21;;;;;;;46.78;24.77;;;19.10;80.30;;;;;;4809311;29;20427;-69
2021/10/19 14:14:47;;;;;;;53.90;28.83;;;19.10;80.80;;;;;;4810272;29;20050;-72
2021/10/19 14:17:13;;;;;;;68.03;45.78;;;19.10;81.80;;;;;;4808820;29;20418;-72
2021/10/19 14:19:39;;;;;;;49.80;31.67;;;19.10;84.10;;;;;;4779135;29;20059;-71
2021/10/19 14:22:07;;;;;;;43.45;22.98;;;19.10;84.10;;;;;;4809720;29;20123;-73
2021/10/19 14:24:33;;;;;;;38.15;24.52;;;19.10;83.90;;;;;;4809667;29;20051;-74
2021/10/19 14:26:59;;;;;;;37.47;23.48;;;19.10;83.80;;;;;;4809730;29;20420;-74
2021/10/19 14:29:25;;;;;;;27.23;16.40;;;19.20;83.60;;;;;;4810119;29;20450;-73
2021/10/19 14:31:51;;;;;;;30.98;20.73;;;19.20;83.10;;;;;;4809773;29;20043;-73
2021/10/19 14:34:20;;;;;;;27.98;15.50;;;19.20;82.70;;;;;;4809700;29;20115;-72
2021/10/19 14:36:50;;;;;;;27.70;16.63;;;19.20;82.30;;;;;;4793494;29;20541;-73
2021/10/19 14:39:21;;;;;;;32.80;19.27;;;19.20;82.30;;;;;;4809864;29;20420;-73
2021/10/19 14:41:50;;;;;;;26.45;16.02;;;19.20;82.50;;;;;;4809334;29;20050;-70
2021/10/19 14:44:15;;;;;;;28.35;19.38;;;19.10;82.30;;;;;;4809369;29;20055;-71
2021/10/19 14:46:46;;;;;;;31.60;20.40;;;19.10;82.50;;;;;;4793438;29;20051;-71
2021/10/19 14:49:13;;;;;;;27.67;19.38;;;19.10;83.00;;;;;;4809522;29;20057;-71
2021/10/19 14:51:39;;;;;;;30.58;19.10;;;19.10;83.50;;;;;;4810030;29;20386;-70
2021/10/19 14:54:08;;;;;;;29.50;18.70;;;19.00;83.60;;;;;;4808935;29;20475;-70
2021/10/19 14:56:33;;;;;;;23.33;17.40;;;19.00;83.70;;;;;;4809667;29;20054;-70
2021/10/19 14:58:59;;;;;;;27.30;17.63;;;19.10;83.60;;;;;;4809203;29;20347;-71
2021/10/19 15:01:25;;;;;;;24.23;17.60;;;19.00;83.50;;;;;;4808846;29;20134;-71
2021/10/19 15:03:50;;;;;;;31.80;17.17;;;19.00;83.40;;;;;;4809224;29;20058;-71
2021/10/19 15:06:18;;;;;;;21.05;16.35;;;19.00;83.30;;;;;;4792831;29;20054;-71
2021/10/19 15:08:46;;;;;;;20.85;16.17;;;18.90;83.10;;;;;;4808556;29;20107;-70
2021/10/19 15:11:11;;;;;;;21.08;15.80;;;18.90;83.00;;;;;;4808966;29;20166;-70
2021/10/19 15:13:37;;;;;;;24.73;16.98;;;18.90;82.90;;;;;;4808774;29;20088;-71
2021/10/19 15:16:03;;;;;;;22.33;15.50;;;18.90;82.80;;;;;;4808651;29;20061;-71
2021/10/19 15:18:29;;;;;;;23.35;14.98;;;18.90;82.70;;;;;;4808261;29;20063;-71
2021/10/19 15:20:56;;;;;;;20.17;15.35;;;18.90;82.70;;;;;;4808411;29;20050;-71
2021/10/19 15:23:22;;;;;;;19.83;14.63;;;18.90;82.50;;;;;;4808594;29;20055;-71
2021/10/19 15:25:48;;;;;;;23.27;15.25;;;18.90;82.40;;;;;;4808371;29;20055;-70
2021/10/19 15:28:14;;;;;;;22.08;15.80;;;18.90;82.30;;;;;;4808145;29;20055;-70
2021/10/19 15:30:40;;;;;;;28.33;15.68;;;18.90;82.40;;;;;;4792765;29;20185;-70
2021/10/19 15:33:05;;;;;;;25.77;15.75;;;18.90;82.20;;;;;;4808610;29;20054;-70
2021/10/19 15:35:31;;;;;;;27.60;16.67;;;18.90;81.90;;;;;;4808973;29;20059;-70
2021/10/19 15:38:00;;;;;;;27.48;15.93;;;19.00;81.90;;;;;;4793136;29;20093;-71
2021/10/19 15:40:26;;;;;;;30.27;17.35;;;18.90;81.80;;;;;;4792266;29;20134;-70
2021/10/19 15:42:52;;;;;;;28.95;16.70;;;18.90;82.00;;;;;;4792275;29;20138;-71
2021/10/19 15:45:18;;;;;;;31.95;16.77;;;18.90;82.40;;;;;;4792441;29;20101;-72
2021/10/19 15:47:44;;;;;;;30.52;16.80;;;18.90;83.40;;;;;;4808053;29;20063;-69
2021/10/19 15:50:11;;;;;;;28.40;16.25;;;18.90;83.10;;;;;;4808996;29;20054;-71
2021/10/19 15:52:37;;;;;;;30.67;16.55;;;19.00;83.50;;;;;;4791952;29;20447;-70
2021/10/19 15:55:05;;;;;;;25.83;16.15;;;19.00;83.60;;;;;;4807955;29;20054;-73
2021/10/19 15:57:30;;;;;;;26.08;16.20;;;19.00;83.60;;;;;;4808069;29;20058;-74
2021/10/19 15:59:56;;;;;;;28.80;16.45;;;19.00;83.80;;;;;;4792273;29;20059;-76
2021/10/19 16:02:22;;;;;;;25.33;15.35;;;19.00;83.50;;;;;;4807477;29;20055;-74
2021/10/19 16:04:47;;;;;;;24.75;15.35;;;19.10;83.80;;;;;;4791569;29;20411;-72
2021/10/19 16:07:16;;;;;;;26.55;16.65;;;19.00;83.90;;;;;;4807241;29;20051;-75
2021/10/19 16:09:42;;;;;;;24.20;16.73;;;19.10;83.90;;;;;;4791794;29;20439;-74
2021/10/19 16:12:08;;;;;;;26.23;16.45;;;19.00;83.90;;;;;;4807976;29;20145;-75
2021/10/19 16:14:33;;;;;;;28.13;15.55;;;19.00;83.80;;;;;;4792144;29;20125;-69
2021/10/19 16:17:00;;;;;;;25.75;15.38;;;19.00;83.40;;;;;;4807864;29;20066;-70
2021/10/19 16:19:26;;;;;;;21.70;15.88;;;19.00;83.20;;;;;;4792878;29;20050;-69
2021/10/19 16:21:52;;;;;;;25.33;15.88;;;18.90;83.00;;;;;;4807479;29;20141;-70
2021/10/19 16:24:18;;;;;;;27.67;16.25;;;19.00;83.00;;;;;;4808090;29;20133;-69
2021/10/19 16:26:45;;;;;;;21.70;15.32;;;18.90;83.00;;;;;;4807880;29;20082;-71
2021/10/19 16:29:11;;;;;;;23.02;15.57;;;18.90;83.20;;;;;;4807721;29;20063;-70
2021/10/19 16:31:37;;;;;;;22.90;15.75;;;18.90;83.20;;;;;;4807048;29;20050;-70
2021/10/19 16:34:05;;;;;;;25.17;15.77;;;18.90;83.20;;;;;;4807696;29;20115;-70
2021/10/19 16:36:34;;;;;;;20.08;15.20;;;18.90;83.20;;;;;;4807151;29;20054;-69
2021/10/19 16:39:00;;;;;;;23.88;15.88;;;18.90;83.10;;;;;;4807472;29;20051;-69
2021/10/19 16:41:26;;;;;;;19.15;15.05;;;18.90;83.20;;;;;;4809586;29;20049;-70
2021/10/19 16:43:52;;;;;;;20.80;14.27;;;18.90;83.10;;;;;;4811580;29;20082;-69
2021/10/19 16:46:21;;;;;;;26.25;16.17;;;18.90;83.00;;;;;;4811320;29;20074;-72
2021/10/19 16:48:50;;;;;;;24.52;15.15;;;18.80;82.90;;;;;;4811033;29;20462;-69
2021/10/19 16:51:16;;;;;;;23.05;16.08;;;18.80;82.70;;;;;;4811578;29;20046;-70
2021/10/19 16:53:43;;;;;;;20.98;15.43;;;18.80;82.70;;;;;;4811438;29;20141;-70
2021/10/19 16:56:10;;;;;;;26.83;15.57;;;18.80;82.60;;;;;;4811146;29;20097;-70
2021/10/19 16:58:40;;;;;;;21.02;15.00;;;18.80;82.50;;;;;;4811456;29;20348;-70
2021/10/19 17:01:06;;;;;;;23.75;16.00;;;18.80;82.40;;;;;;4810660;29;20050;-74
2021/10/19 17:03:32;;;;;;;22.48;16.48;;;18.80;82.40;;;;;;4780162;29;20122;-74
2021/10/19 17:05:58;;;;;;;24.85;19.77;;;18.80;82.30;;;;;;4811059;29;20141;-72
2021/10/19 17:08:27;;;;;;;39.55;29.38;;;18.80;82.30;;;;;;4810556;29;20066;-71
2021/10/19 17:10:52;;;;;;;33.72;26.13;;;18.80;81.80;;;;;;4795283;29;20382;-70
2021/10/19 17:13:19;;;;;;;32.95;26.85;;;18.80;81.20;;;;;;4810673;29;20138;-70
2021/10/19 17:15:49;;;;;;;35.35;27.02;;;18.80;81.20;;;;;;4810553;29;20109;-71
2021/10/19 17:18:15;;;;;;;33.13;26.17;;;18.80;81.20;;;;;;4810841;29;20095;-70
2021/10/19 17:20:42;;;;;;;38.95;26.08;;;18.80;81.20;;;;;;4810331;29;20042;-70
2021/10/19 17:23:09;;;;;;;33.33;25.48;;;18.80;81.10;;;;;;4810421;29;20058;-71
2021/10/19 17:25:36;;;;;;;34.45;25.90;;;18.80;80.90;;;;;;4810935;29;20054;-70
2021/10/19 17:28:02;;;;;;;33.88;25.73;;;18.70;80.90;;;;;;4810782;29;20482;-71
2021/10/19 17:30:28;;;;;;;31.15;25.35;;;18.80;81.00;;;;;;4810024;29;20047;-70
2021/10/19 17:32:54;;;;;;;32.92;25.42;;;18.70;80.90;;;;;;4810275;29;20054;-70
2021/10/19 17:35:20;;;;;;;31.95;24.30;;;18.70;80.80;;;;;;4810390;29;20069;-71
2021/10/19 17:37:46;;;;;;;34.75;25.33;;;18.70;80.80;;;;;;4810676;29;20054;-71
2021/10/19 17:40:12;;;;;;;34.15;25.48;;;18.70;80.70;;;;;;4794689;29;20432;-70
2021/10/19 17:42:38;;;;;;;30.05;24.75;;;18.70;80.70;;;;;;4810628;29;20092;-71
2021/10/19 17:45:09;;;;;;;33.15;26.58;;;18.80;80.70;;;;;;4810886;29;20164;-69
2021/10/19 17:47:35;;;;;;;30.08;24.50;;;18.80;80.60;;;;;;4808784;29;20039;-70